sensor_id;sensor_type;location;lat;lon;timestamp;P1;durP1;ratioP1;P2;durP2;ratioP2
64871;SDS011;51351;51.450;6.614;2023-10-08T00:02:26;9.57;;;4.53;;
64871;SDS011;51351;51.450;6.614;2023-10-08T00:04:52;9.25;;;4.82;;
64871;SDS011;51351;51.450;6.614;2023-10-08T00:07:25;8.33;;;4.73;;
64871;SDS011;51351;51.450;6.614;2023-10-08T00:10:10;8.15;;;5.10;;
64871;SDS011;51351;51.450;6.614;2023-10-08T00:12:35;7.60;;;4.60;;
64871;SDS011;51351;51.450;6.614;2023-10-08T00:15:06;9.35;;;4.55;;
64871;SDS011;51351;51.450;6.614;2023-10-08T00:17:35;7.40;;;4.53;;
64871;SDS011;51351;51.450;6.614;2023-10-08T00:20:04;9.13;;;5.00;;
64871;SDS011;51351;51.450;6.614;2023-10-08T00:22:31;9.10;;;4.80;;
64871;SDS011;51351;51.450;6.614;2023-10-08T00:25:04;8.35;;;4.95;;
64871;SDS011;51351;51.450;6.614;2023-10-08T00:27:36;9.68;;;4.47;;
64871;SDS011;51351;51.450;6.614;2023-10-08T00:30:04;9.07;;;4.75;;
64871;SDS011;51351;51.450;6.614;2023-10-08T00:32:38;10.00;;;4.85;;
64871;SDS011;51351;51.450;6.614;2023-10-08T00:35:04;8.57;;;5.10;;
64871;SDS011;51351;51.450;6.614;2023-10-08T00:37:30;9.25;;;4.47;;
64871;SDS011;51351;51.450;6.614;2023-10-08T00:39:56;6.87;;;4.23;;
64871;SDS011;51351;51.450;6.614;2023-10-08T00:42:22;11.45;;;5.28;;
64871;SDS011;51351;51.450;6.614;2023-10-08T00:44:47;9.38;;;5.18;;
64871;SDS011;51351;51.450;6.614;2023-10-08T00:47:16;9.20;;;4.70;;
64871;SDS011;51351;51.450;6.614;2023-10-08T00:49:42;10.23;;;5.03;;
64871;SDS011;51351;51.450;6.614;2023-10-08T00:52:11;8.53;;;5.00;;
64871;SDS011;51351;51.450;6.614;2023-10-08T00:54:41;7.80;;;4.90;;
64871;SDS011;51351;51.450;6.614;2023-10-08T00:57:27;9.10;;;4.85;;
64871;SDS011;51351;51.450;6.614;2023-10-08T00:59:55;8.07;;;5.15;;
64871;SDS011;51351;51.450;6.614;2023-10-08T01:02:29;9.25;;;4.60;;
64871;SDS011;51351;51.450;6.614;2023-10-08T01:05:16;8.73;;;4.63;;
64871;SDS011;51351;51.450;6.614;2023-10-08T01:07:51;10.90;;;4.72;;
64871;SDS011;51351;51.450;6.614;2023-10-08T01:10:40;7.90;;;5.03;;
64871;SDS011;51351;51.450;6.614;2023-10-08T01:13:20;9.70;;;4.78;;
64871;SDS011;51351;51.450;6.614;2023-10-08T01:15:55;9.52;;;4.82;;
64871;SDS011;51351;51.450;6.614;2023-10-08T01:18:23;10.95;;;5.22;;
64871;SDS011;51351;51.450;6.614;2023-10-08T01:20:57;9.52;;;5.00;;
64871;SDS011;51351;51.450;6.614;2023-10-08T01:23:35;8.70;;;4.93;;
64871;SDS011;51351;51.450;6.614;2023-10-08T01:26:00;8.98;;;4.68;;
64871;SDS011;51351;51.450;6.614;2023-10-08T01:28:40;9.52;;;4.90;;
64871;SDS011;51351;51.450;6.614;2023-10-08T01:31:09;10.20;;;5.18;;
64871;SDS011;51351;51.450;6.614;2023-10-08T01:33:37;8.65;;;4.85;;
64871;SDS011;51351;51.450;6.614;2023-10-08T01:36:11;10.93;;;5.18;;
64871;SDS011;51351;51.450;6.614;2023-10-08T01:38:38;10.55;;;4.85;;
64871;SDS011;51351;51.450;6.614;2023-10-08T01:41:04;9.20;;;4.57;;
64871;SDS011;51351;51.450;6.614;2023-10-08T01:43:44;8.95;;;4.40;;
64871;SDS011;51351;51.450;6.614;2023-10-08T01:46:10;10.98;;;5.38;;
64871;SDS011;51351;51.450;6.614;2023-10-08T01:48:40;10.23;;;5.20;;
64871;SDS011;51351;51.450;6.614;2023-10-08T01:51:08;10.02;;;4.25;;
64871;SDS011;51351;51.450;6.614;2023-10-08T01:53:37;8.32;;;4.25;;
64871;SDS011;51351;51.450;6.614;2023-10-08T01:56:12;8.98;;;5.05;;
64871;SDS011;51351;51.450;6.614;2023-10-08T01:58:49;12.40;;;5.20;;
64871;SDS011;51351;51.450;6.614;2023-10-08T02:01:24;9.55;;;5.07;;
64871;SDS011;51351;51.450;6.614;2023-10-08T02:03:50;9.30;;;4.85;;
64871;SDS011;51351;51.450;6.614;2023-10-08T02:06:17;8.48;;;4.65;;
64871;SDS011;51351;51.450;6.614;2023-10-08T02:08:43;8.83;;;4.87;;
64871;SDS011;51351;51.450;6.614;2023-10-08T02:11:09;8.00;;;4.67;;
64871;SDS011;51351;51.450;6.614;2023-10-08T02:13:35;10.05;;;5.32;;
64871;SDS011;51351;51.450;6.614;2023-10-08T02:19:57;9.07;;;5.13;;
64871;SDS011;51351;51.450;6.614;2023-10-08T02:22:23;10.33;;;5.37;;
64871;SDS011;51351;51.450;6.614;2023-10-08T02:24:48;10.43;;;4.83;;
64871;SDS011;51351;51.450;6.614;2023-10-08T02:27:16;10.77;;;5.05;;
64871;SDS011;51351;51.450;6.614;2023-10-08T02:29:42;9.15;;;4.50;;
64871;SDS011;51351;51.450;6.614;2023-10-08T02:32:07;8.68;;;4.97;;
64871;SDS011;51351;51.450;6.614;2023-10-08T02:34:36;9.57;;;5.57;;
64871;SDS011;51351;51.450;6.614;2023-10-08T02:37:02;8.63;;;4.65;;
64871;SDS011;51351;51.450;6.614;2023-10-08T02:39:32;10.98;;;4.65;;
64871;SDS011;51351;51.450;6.614;2023-10-08T02:41:57;9.03;;;4.73;;
64871;SDS011;51351;51.450;6.614;2023-10-08T02:44:25;7.57;;;4.77;;
64871;SDS011;51351;51.450;6.614;2023-10-08T02:46:52;12.35;;;7.65;;
64871;SDS011;51351;51.450;6.614;2023-10-08T02:49:19;7.50;;;4.53;;
64871;SDS011;51351;51.450;6.614;2023-10-08T02:51:57;8.20;;;4.53;;
64871;SDS011;51351;51.450;6.614;2023-10-08T02:54:23;8.68;;;4.97;;
64871;SDS011;51351;51.450;6.614;2023-10-08T02:56:57;8.88;;;4.80;;
64871;SDS011;51351;51.450;6.614;2023-10-08T02:59:36;8.43;;;4.85;;
64871;SDS011;51351;51.450;6.614;2023-10-08T03:02:13;6.78;;;4.22;;
64871;SDS011;51351;51.450;6.614;2023-10-08T03:04:51;8.73;;;4.40;;
64871;SDS011;51351;51.450;6.614;2023-10-08T03:11:05;9.77;;;4.32;;
64871;SDS011;51351;51.450;6.614;2023-10-08T03:13:44;9.65;;;4.57;;
64871;SDS011;51351;51.450;6.614;2023-10-08T03:16:17;9.80;;;4.60;;
64871;SDS011;51351;51.450;6.614;2023-10-08T03:18:46;7.85;;;4.70;;
64871;SDS011;51351;51.450;6.614;2023-10-08T03:21:17;7.18;;;4.55;;
64871;SDS011;51351;51.450;6.614;2023-10-08T03:24:08;9.73;;;5.00;;
64871;SDS011;51351;51.450;6.614;2023-10-08T03:26:55;8.00;;;4.47;;
64871;SDS011;51351;51.450;6.614;2023-10-08T03:29:31;7.57;;;4.63;;
64871;SDS011;51351;51.450;6.614;2023-10-08T03:31:58;9.02;;;4.50;;
64871;SDS011;51351;51.450;6.614;2023-10-08T03:34:23;7.63;;;4.53;;
64871;SDS011;51351;51.450;6.614;2023-10-08T03:36:54;8.55;;;4.85;;
64871;SDS011;51351;51.450;6.614;2023-10-08T03:39:30;8.30;;;4.20;;
64871;SDS011;51351;51.450;6.614;2023-10-08T03:42:19;8.43;;;4.65;;
64871;SDS011;51351;51.450;6.614;2023-10-08T03:44:48;7.32;;;4.30;;
64871;SDS011;51351;51.450;6.614;2023-10-08T03:47:21;7.50;;;4.72;;
64871;SDS011;51351;51.450;6.614;2023-10-08T03:49:52;8.55;;;4.90;;
64871;SDS011;51351;51.450;6.614;2023-10-08T03:52:19;8.20;;;4.72;;
64871;SDS011;51351;51.450;6.614;2023-10-08T03:54:48;9.63;;;4.45;;
64871;SDS011;51351;51.450;6.614;2023-10-08T03:57:33;7.13;;;5.03;;
64871;SDS011;51351;51.450;6.614;2023-10-08T04:00:08;6.68;;;4.22;;
64871;SDS011;51351;51.450;6.614;2023-10-08T04:02:39;8.98;;;4.95;;
64871;SDS011;51351;51.450;6.614;2023-10-08T04:05:06;8.88;;;4.38;;
64871;SDS011;51351;51.450;6.614;2023-10-08T04:07:44;8.23;;;4.60;;
64871;SDS011;51351;51.450;6.614;2023-10-08T04:10:26;10.60;;;4.65;;
64871;SDS011;51351;51.450;6.614;2023-10-08T04:13:08;8.80;;;3.95;;
64871;SDS011;51351;51.450;6.614;2023-10-08T04:32:59;5.93;;;2.90;;
64871;SDS011;51351;51.450;6.614;2023-10-08T08:03:42;10.30;;;5.13;;
64871;SDS011;51351;51.450;6.614;2023-10-08T08:06:11;13.52;;;5.45;;
64871;SDS011;51351;51.450;6.614;2023-10-08T08:10:14;14.65;;;4.95;;
64871;SDS011;51351;51.450;6.614;2023-10-08T08:12:41;11.90;;;5.00;;
64871;SDS011;51351;51.450;6.614;2023-10-08T08:15:57;10.63;;;5.25;;
64871;SDS011;51351;51.450;6.614;2023-10-08T08:18:24;12.88;;;4.60;;
64871;SDS011;51351;51.450;6.614;2023-10-08T08:26:23;12.77;;;7.65;;
64871;SDS011;51351;51.450;6.614;2023-10-08T08:29:04;15.90;;;7.53;;
64871;SDS011;51351;51.450;6.614;2023-10-08T08:36:33;14.27;;;5.75;;
64871;SDS011;51351;51.450;6.614;2023-10-08T08:39:03;12.38;;;6.18;;
64871;SDS011;51351;51.450;6.614;2023-10-08T08:41:29;10.38;;;6.45;;
64871;SDS011;51351;51.450;6.614;2023-10-08T08:43:55;12.15;;;6.53;;
64871;SDS011;51351;51.450;6.614;2023-10-08T08:46:33;9.63;;;6.03;;
64871;SDS011;51351;51.450;6.614;2023-10-08T08:49:03;12.07;;;6.13;;
64871;SDS011;51351;51.450;6.614;2023-10-08T08:51:33;12.13;;;6.25;;
64871;SDS011;51351;51.450;6.614;2023-10-08T08:54:03;17.77;;;6.45;;
64871;SDS011;51351;51.450;6.614;2023-10-08T08:56:38;11.43;;;6.38;;
64871;SDS011;51351;51.450;6.614;2023-10-08T08:59:06;18.23;;;7.03;;
64871;SDS011;51351;51.450;6.614;2023-10-08T09:01:42;10.20;;;5.65;;
64871;SDS011;51351;51.450;6.614;2023-10-08T09:04:08;11.98;;;6.18;;
64871;SDS011;51351;51.450;6.614;2023-10-08T09:06:34;14.27;;;7.13;;
64871;SDS011;51351;51.450;6.614;2023-10-08T09:09:05;13.70;;;6.82;;
64871;SDS011;51351;51.450;6.614;2023-10-08T09:11:51;13.05;;;6.53;;
64871;SDS011;51351;51.450;6.614;2023-10-08T09:14:24;14.30;;;5.95;;
64871;SDS011;51351;51.450;6.614;2023-10-08T09:16:52;13.95;;;6.95;;
64871;SDS011;51351;51.450;6.614;2023-10-08T09:19:19;14.50;;;6.85;;
64871;SDS011;51351;51.450;6.614;2023-10-08T09:24:39;17.08;;;7.82;;
64871;SDS011;51351;51.450;6.614;2023-10-08T09:27:06;16.17;;;8.30;;
64871;SDS011;51351;51.450;6.614;2023-10-08T09:29:33;24.77;;;11.43;;
64871;SDS011;51351;51.450;6.614;2023-10-08T09:32:05;18.95;;;11.27;;
64871;SDS011;51351;51.450;6.614;2023-10-08T09:34:32;18.70;;;11.75;;
64871;SDS011;51351;51.450;6.614;2023-10-08T09:37:04;22.88;;;13.18;;
64871;SDS011;51351;51.450;6.614;2023-10-08T09:39:30;21.25;;;11.77;;
64871;SDS011;51351;51.450;6.614;2023-10-08T09:42:02;18.50;;;10.48;;
64871;SDS011;51351;51.450;6.614;2023-10-08T09:47:04;20.25;;;9.73;;
64871;SDS011;51351;51.450;6.614;2023-10-08T09:52:02;13.65;;;8.48;;
64871;SDS011;51351;51.450;6.614;2023-10-08T09:54:31;15.77;;;9.27;;
64871;SDS011;51351;51.450;6.614;2023-10-08T09:57:13;13.18;;;7.45;;
64871;SDS011;51351;51.450;6.614;2023-10-08T09:59:39;18.23;;;9.10;;
64871;SDS011;51351;51.450;6.614;2023-10-08T10:02:06;22.00;;;10.38;;
64871;SDS011;51351;51.450;6.614;2023-10-08T10:04:35;17.30;;;9.60;;
64871;SDS011;51351;51.450;6.614;2023-10-08T10:07:09;16.35;;;8.60;;
64871;SDS011;51351;51.450;6.614;2023-10-08T10:09:37;17.30;;;8.88;;
64871;SDS011;51351;51.450;6.614;2023-10-08T10:12:05;15.43;;;8.23;;
64871;SDS011;51351;51.450;6.614;2023-10-08T10:14:41;16.63;;;8.80;;
64871;SDS011;51351;51.450;6.614;2023-10-08T10:17:20;16.70;;;7.93;;
64871;SDS011;51351;51.450;6.614;2023-10-08T10:19:56;13.88;;;5.88;;
64871;SDS011;51351;51.450;6.614;2023-10-08T10:25:02;11.30;;;7.00;;
64871;SDS011;51351;51.450;6.614;2023-10-08T10:30:29;13.70;;;7.57;;
64871;SDS011;51351;51.450;6.614;2023-10-08T10:32:55;17.58;;;8.10;;
64871;SDS011;51351;51.450;6.614;2023-10-08T10:35:25;15.55;;;8.70;;
64871;SDS011;51351;51.450;6.614;2023-10-08T10:37:52;23.58;;;8.63;;
64871;SDS011;51351;51.450;6.614;2023-10-08T10:40:23;13.70;;;10.27;;
64871;SDS011;51351;51.450;6.614;2023-10-08T10:42:58;16.42;;;8.35;;
64871;SDS011;51351;51.450;6.614;2023-10-08T10:45:29;18.70;;;10.20;;
64871;SDS011;51351;51.450;6.614;2023-10-08T10:48:04;14.25;;;9.30;;
64871;SDS011;51351;51.450;6.614;2023-10-08T10:50:41;24.58;;;9.68;;
64871;SDS011;51351;51.450;6.614;2023-10-08T10:53:23;16.52;;;9.50;;
64871;SDS011;51351;51.450;6.614;2023-10-08T10:55:52;16.48;;;9.73;;
64871;SDS011;51351;51.450;6.614;2023-10-08T10:58:25;19.90;;;10.25;;
64871;SDS011;51351;51.450;6.614;2023-10-08T11:00:51;19.95;;;10.52;;
64871;SDS011;51351;51.450;6.614;2023-10-08T11:03:24;20.52;;;10.32;;
64871;SDS011;51351;51.450;6.614;2023-10-08T11:05:56;19.40;;;9.90;;
64871;SDS011;51351;51.450;6.614;2023-10-08T11:08:25;17.15;;;11.43;;
64871;SDS011;51351;51.450;6.614;2023-10-08T11:10:52;19.90;;;11.20;;
64871;SDS011;51351;51.450;6.614;2023-10-08T11:13:19;19.02;;;9.63;;
64871;SDS011;51351;51.450;6.614;2023-10-08T11:15:46;16.77;;;9.38;;
64871;SDS011;51351;51.450;6.614;2023-10-08T11:18:21;21.40;;;10.68;;
64871;SDS011;51351;51.450;6.614;2023-10-08T11:20:49;27.63;;;15.68;;
64871;SDS011;51351;51.450;6.614;2023-10-08T11:23:48;22.95;;;13.52;;
64871;SDS011;51351;51.450;6.614;2023-10-08T11:26:19;19.25;;;12.45;;
64871;SDS011;51351;51.450;6.614;2023-10-08T11:28:45;17.63;;;11.65;;
64871;SDS011;51351;51.450;6.614;2023-10-08T11:31:13;17.15;;;11.00;;
64871;SDS011;51351;51.450;6.614;2023-10-08T11:33:41;21.10;;;11.45;;
64871;SDS011;51351;51.450;6.614;2023-10-08T11:36:10;17.95;;;10.35;;
64871;SDS011;51351;51.450;6.614;2023-10-08T11:38:45;20.25;;;10.93;;
64871;SDS011;51351;51.450;6.614;2023-10-08T11:41:16;19.55;;;12.10;;
64871;SDS011;51351;51.450;6.614;2023-10-08T11:43:52;17.13;;;10.88;;
64871;SDS011;51351;51.450;6.614;2023-10-08T11:46:23;20.00;;;11.63;;
64871;SDS011;51351;51.450;6.614;2023-10-08T11:48:58;20.33;;;11.27;;
64871;SDS011;51351;51.450;6.614;2023-10-08T11:54:32;16.10;;;9.63;;
64871;SDS011;51351;51.450;6.614;2023-10-08T11:56:59;18.53;;;10.40;;
64871;SDS011;51351;51.450;6.614;2023-10-08T11:59:28;18.73;;;11.38;;
64871;SDS011;51351;51.450;6.614;2023-10-08T12:01:54;17.67;;;10.63;;
64871;SDS011;51351;51.450;6.614;2023-10-08T12:04:21;14.43;;;9.27;;
64871;SDS011;51351;51.450;6.614;2023-10-08T12:06:47;15.32;;;9.77;;
64871;SDS011;51351;51.450;6.614;2023-10-08T12:09:17;13.13;;;9.43;;
64871;SDS011;51351;51.450;6.614;2023-10-08T12:11:47;13.77;;;9.13;;
64871;SDS011;51351;51.450;6.614;2023-10-08T12:14:13;14.82;;;7.22;;
64871;SDS011;51351;51.450;6.614;2023-10-08T12:16:40;10.98;;;6.72;;
64871;SDS011;51351;51.450;6.614;2023-10-08T12:19:06;11.43;;;5.80;;
64871;SDS011;51351;51.450;6.614;2023-10-08T12:21:41;11.43;;;5.63;;
64871;SDS011;51351;51.450;6.614;2023-10-08T12:24:07;11.00;;;6.20;;
64871;SDS011;51351;51.450;6.614;2023-10-08T12:26:37;13.45;;;5.80;;
64871;SDS011;51351;51.450;6.614;2023-10-08T12:29:11;10.52;;;5.95;;
64871;SDS011;51351;51.450;6.614;2023-10-08T12:31:39;10.00;;;5.55;;
64871;SDS011;51351;51.450;6.614;2023-10-08T12:34:05;10.05;;;4.80;;
64871;SDS011;51351;51.450;6.614;2023-10-08T12:36:30;12.20;;;5.22;;
64871;SDS011;51351;51.450;6.614;2023-10-08T12:39:01;10.07;;;4.43;;
64871;SDS011;51351;51.450;6.614;2023-10-08T12:41:34;11.75;;;5.50;;
64871;SDS011;51351;51.450;6.614;2023-10-08T12:44:03;11.30;;;5.95;;
64871;SDS011;51351;51.450;6.614;2023-10-08T12:46:32;8.73;;;4.55;;
64871;SDS011;51351;51.450;6.614;2023-10-08T12:48:59;9.73;;;4.38;;
64871;SDS011;51351;51.450;6.614;2023-10-08T12:51:26;10.25;;;5.45;;
64871;SDS011;51351;51.450;6.614;2023-10-08T12:53:57;9.02;;;5.85;;
64871;SDS011;51351;51.450;6.614;2023-10-08T12:56:31;12.05;;;5.40;;
64871;SDS011;51351;51.450;6.614;2023-10-08T12:59:00;7.63;;;3.85;;
64871;SDS011;51351;51.450;6.614;2023-10-08T13:08:58;7.57;;;4.07;;
64871;SDS011;51351;51.450;6.614;2023-10-08T13:13:50;9.82;;;4.68;;
64871;SDS011;51351;51.450;6.614;2023-10-08T15:33:07;12.02;;;5.53;;
64871;SDS011;51351;51.450;6.614;2023-10-08T15:35:33;12.85;;;5.72;;
64871;SDS011;51351;51.450;6.614;2023-10-08T15:37:58;12.00;;;5.45;;
64871;SDS011;51351;51.450;6.614;2023-10-08T15:40:24;12.57;;;5.90;;
64871;SDS011;51351;51.450;6.614;2023-10-08T15:42:54;9.00;;;4.55;;
64871;SDS011;51351;51.450;6.614;2023-10-08T15:45:22;7.43;;;4.30;;
64871;SDS011;51351;51.450;6.614;2023-10-08T15:47:48;12.52;;;5.15;;
64871;SDS011;51351;51.450;6.614;2023-10-08T15:50:14;6.82;;;4.68;;
64871;SDS011;51351;51.450;6.614;2023-10-08T15:52:40;7.70;;;4.82;;
64871;SDS011;51351;51.450;6.614;2023-10-08T15:55:06;9.02;;;4.50;;
64871;SDS011;51351;51.450;6.614;2023-10-08T15:57:33;8.68;;;4.07;;
64871;SDS011;51351;51.450;6.614;2023-10-08T15:59:58;11.30;;;5.43;;
64871;SDS011;51351;51.450;6.614;2023-10-08T16:02:24;7.18;;;4.10;;
64871;SDS011;51351;51.450;6.614;2023-10-08T16:04:49;9.27;;;3.97;;
64871;SDS011;51351;51.450;6.614;2023-10-08T16:07:15;9.80;;;4.78;;
64871;SDS011;51351;51.450;6.614;2023-10-08T16:09:41;9.10;;;3.22;;
64871;SDS011;51351;51.450;6.614;2023-10-08T16:12:07;6.10;;;3.72;;
64871;SDS011;51351;51.450;6.614;2023-10-08T16:14:33;8.55;;;4.43;;
64871;SDS011;51351;51.450;6.614;2023-10-08T16:16:58;9.88;;;4.10;;
64871;SDS011;51351;51.450;6.614;2023-10-08T16:19:24;8.70;;;3.83;;
64871;SDS011;51351;51.450;6.614;2023-10-08T16:21:55;10.05;;;4.43;;
64871;SDS011;51351;51.450;6.614;2023-10-08T16:24:20;9.23;;;4.25;;
64871;SDS011;51351;51.450;6.614;2023-10-08T16:26:48;7.47;;;3.60;;
64871;SDS011;51351;51.450;6.614;2023-10-08T16:29:14;5.82;;;3.53;;
64871;SDS011;51351;51.450;6.614;2023-10-08T16:31:40;10.18;;;4.43;;
64871;SDS011;51351;51.450;6.614;2023-10-08T16:34:08;7.63;;;3.42;;
64871;SDS011;51351;51.450;6.614;2023-10-08T16:36:34;5.97;;;3.30;;
64871;SDS011;51351;51.450;6.614;2023-10-08T16:39:00;6.85;;;4.45;;
64871;SDS011;51351;51.450;6.614;2023-10-08T16:41:26;7.90;;;3.65;;
64871;SDS011;51351;51.450;6.614;2023-10-08T16:43:52;5.95;;;3.10;;
64871;SDS011;51351;51.450;6.614;2023-10-08T16:46:18;6.00;;;3.13;;
64871;SDS011;51351;51.450;6.614;2023-10-08T16:48:43;8.65;;;4.22;;
64871;SDS011;51351;51.450;6.614;2023-10-08T16:51:10;7.65;;;3.75;;
64871;SDS011;51351;51.450;6.614;2023-10-08T16:53:35;10.27;;;4.50;;
64871;SDS011;51351;51.450;6.614;2023-10-08T16:56:01;7.70;;;4.57;;
64871;SDS011;51351;51.450;6.614;2023-10-08T16:58:26;8.53;;;4.20;;
64871;SDS011;51351;51.450;6.614;2023-10-08T17:00:52;8.13;;;5.40;;
64871;SDS011;51351;51.450;6.614;2023-10-08T17:03:18;8.43;;;4.53;;
64871;SDS011;51351;51.450;6.614;2023-10-08T17:05:47;8.27;;;4.72;;
64871;SDS011;51351;51.450;6.614;2023-10-08T17:08:15;7.97;;;4.40;;
64871;SDS011;51351;51.450;6.614;2023-10-08T17:10:43;7.40;;;5.13;;
64871;SDS011;51351;51.450;6.614;2023-10-08T17:13:09;7.05;;;5.28;;
64871;SDS011;51351;51.450;6.614;2023-10-08T17:15:36;8.20;;;5.10;;
64871;SDS011;51351;51.450;6.614;2023-10-08T17:18:01;8.63;;;5.15;;
64871;SDS011;51351;51.450;6.614;2023-10-08T17:20:27;10.35;;;4.72;;
64871;SDS011;51351;51.450;6.614;2023-10-08T17:22:52;9.65;;;4.28;;
64871;SDS011;51351;51.450;6.614;2023-10-08T17:25:18;10.60;;;4.93;;
64871;SDS011;51351;51.450;6.614;2023-10-08T17:27:44;7.57;;;4.17;;
64871;SDS011;51351;51.450;6.614;2023-10-08T17:30:10;9.33;;;4.50;;
64871;SDS011;51351;51.450;6.614;2023-10-08T17:32:42;9.75;;;4.40;;
64871;SDS011;51351;51.450;6.614;2023-10-08T17:35:09;9.43;;;4.70;;
64871;SDS011;51351;51.450;6.614;2023-10-08T17:37:34;8.38;;;4.68;;
64871;SDS011;51351;51.450;6.614;2023-10-08T17:40:03;6.95;;;4.72;;
64871;SDS011;51351;51.450;6.614;2023-10-08T17:42:30;9.20;;;4.90;;
64871;SDS011;51351;51.450;6.614;2023-10-08T17:44:56;9.37;;;5.17;;
64871;SDS011;51351;51.450;6.614;2023-10-08T17:47:24;8.23;;;5.20;;
64871;SDS011;51351;51.450;6.614;2023-10-08T17:49:51;9.02;;;4.72;;
64871;SDS011;51351;51.450;6.614;2023-10-08T17:52:16;6.55;;;4.30;;
64871;SDS011;51351;51.450;6.614;2023-10-08T17:54:42;9.13;;;5.15;;
64871;SDS011;51351;51.450;6.614;2023-10-08T17:57:08;8.37;;;5.27;;
64871;SDS011;51351;51.450;6.614;2023-10-08T17:59:38;8.68;;;4.72;;
64871;SDS011;51351;51.450;6.614;2023-10-08T18:02:04;8.32;;;5.07;;
64871;SDS011;51351;51.450;6.614;2023-10-08T18:04:31;9.38;;;4.60;;
64871;SDS011;51351;51.450;6.614;2023-10-08T18:06:57;11.03;;;5.33;;
64871;SDS011;51351;51.450;6.614;2023-10-08T18:09:23;8.00;;;4.97;;
64871;SDS011;51351;51.450;6.614;2023-10-08T18:11:49;11.37;;;5.40;;
64871;SDS011;51351;51.450;6.614;2023-10-08T18:14:15;10.00;;;5.37;;
64871;SDS011;51351;51.450;6.614;2023-10-08T18:16:44;9.75;;;5.60;;
64871;SDS011;51351;51.450;6.614;2023-10-08T18:19:11;8.40;;;4.88;;
64871;SDS011;51351;51.450;6.614;2023-10-08T18:21:42;7.82;;;4.93;;
64871;SDS011;51351;51.450;6.614;2023-10-08T18:24:10;8.80;;;4.95;;
64871;SDS011;51351;51.450;6.614;2023-10-08T18:26:37;7.45;;;5.07;;
64871;SDS011;51351;51.450;6.614;2023-10-08T18:29:16;7.22;;;4.80;;
64871;SDS011;51351;51.450;6.614;2023-10-08T18:31:42;8.27;;;5.30;;
64871;SDS011;51351;51.450;6.614;2023-10-08T18:34:09;8.48;;;5.85;;
64871;SDS011;51351;51.450;6.614;2023-10-08T18:36:37;8.70;;;5.57;;
64871;SDS011;51351;51.450;6.614;2023-10-08T18:39:04;10.02;;;5.90;;
64871;SDS011;51351;51.450;6.614;2023-10-08T18:41:47;9.32;;;6.47;;
64871;SDS011;51351;51.450;6.614;2023-10-08T18:44:13;7.87;;;5.20;;
64871;SDS011;51351;51.450;6.614;2023-10-08T18:46:40;9.48;;;5.95;;
64871;SDS011;51351;51.450;6.614;2023-10-08T18:49:09;8.95;;;5.22;;
64871;SDS011;51351;51.450;6.614;2023-10-08T18:51:36;9.55;;;6.18;;
64871;SDS011;51351;51.450;6.614;2023-10-08T18:54:03;9.70;;;5.55;;
64871;SDS011;51351;51.450;6.614;2023-10-08T18:56:31;9.73;;;5.47;;
64871;SDS011;51351;51.450;6.614;2023-10-08T18:58:59;8.15;;;5.85;;
64871;SDS011;51351;51.450;6.614;2023-10-08T19:01:25;7.80;;;5.25;;
64871;SDS011;51351;51.450;6.614;2023-10-08T19:03:51;6.90;;;4.88;;
64871;SDS011;51351;51.450;6.614;2023-10-08T19:06:17;7.13;;;4.88;;
64871;SDS011;51351;51.450;6.614;2023-10-08T19:08:43;7.95;;;4.65;;
64871;SDS011;51351;51.450;6.614;2023-10-08T19:11:09;8.90;;;5.87;;
64871;SDS011;51351;51.450;6.614;2023-10-08T19:13:37;8.95;;;5.80;;
64871;SDS011;51351;51.450;6.614;2023-10-08T19:16:05;8.20;;;5.47;;
64871;SDS011;51351;51.450;6.614;2023-10-08T19:18:35;7.90;;;5.53;;
64871;SDS011;51351;51.450;6.614;2023-10-08T19:21:02;7.67;;;5.03;;
64871;SDS011;51351;51.450;6.614;2023-10-08T19:23:29;8.97;;;5.40;;
64871;SDS011;51351;51.450;6.614;2023-10-08T19:25:55;9.82;;;6.85;;
64871;SDS011;51351;51.450;6.614;2023-10-08T19:28:21;10.13;;;6.27;;
64871;SDS011;51351;51.450;6.614;2023-10-08T19:30:49;13.20;;;9.65;;
64871;SDS011;51351;51.450;6.614;2023-10-08T19:33:16;17.17;;;11.33;;
64871;SDS011;51351;51.450;6.614;2023-10-08T19:35:42;7.72;;;6.28;;
64871;SDS011;51351;51.450;6.614;2023-10-08T19:38:11;7.82;;;5.55;;
64871;SDS011;51351;51.450;6.614;2023-10-08T19:40:38;7.53;;;5.33;;
64871;SDS011;51351;51.450;6.614;2023-10-08T19:43:04;7.30;;;5.13;;
64871;SDS011;51351;51.450;6.614;2023-10-08T19:45:36;9.65;;;5.43;;
64871;SDS011;51351;51.450;6.614;2023-10-08T19:48:03;8.32;;;5.65;;
64871;SDS011;51351;51.450;6.614;2023-10-08T19:50:35;9.45;;;5.65;;
64871;SDS011;51351;51.450;6.614;2023-10-08T19:53:12;8.32;;;5.45;;
64871;SDS011;51351;51.450;6.614;2023-10-08T19:55:49;7.28;;;5.05;;
64871;SDS011;51351;51.450;6.614;2023-10-08T19:58:16;8.73;;;5.45;;
64871;SDS011;51351;51.450;6.614;2023-10-08T20:00:43;7.40;;;5.28;;
64871;SDS011;51351;51.450;6.614;2023-10-08T20:03:09;6.75;;;4.93;;
64871;SDS011;51351;51.450;6.614;2023-10-08T20:05:41;7.57;;;5.22;;
64871;SDS011;51351;51.450;6.614;2023-10-08T20:08:07;7.40;;;5.75;;
64871;SDS011;51351;51.450;6.614;2023-10-08T20:10:36;9.00;;;5.53;;
64871;SDS011;51351;51.450;6.614;2023-10-08T20:13:05;9.65;;;6.03;;
64871;SDS011;51351;51.450;6.614;2023-10-08T20:15:32;7.32;;;5.80;;
64871;SDS011;51351;51.450;6.614;2023-10-08T20:17:59;7.97;;;5.60;;
64871;SDS011;51351;51.450;6.614;2023-10-08T20:20:26;8.43;;;4.65;;
64871;SDS011;51351;51.450;6.614;2023-10-08T20:22:55;7.50;;;5.00;;
64871;SDS011;51351;51.450;6.614;2023-10-08T20:25:22;7.65;;;5.07;;
64871;SDS011;51351;51.450;6.614;2023-10-08T20:27:53;7.63;;;6.40;;
64871;SDS011;51351;51.450;6.614;2023-10-08T20:30:20;8.20;;;5.53;;
64871;SDS011;51351;51.450;6.614;2023-10-08T20:32:47;7.87;;;5.10;;
64871;SDS011;51351;51.450;6.614;2023-10-08T20:35:14;8.60;;;5.75;;
64871;SDS011;51351;51.450;6.614;2023-10-08T20:40:15;5.60;;;3.78;;
64871;SDS011;51351;51.450;6.614;2023-10-08T20:42:44;10.48;;;4.85;;
64871;SDS011;51351;51.450;6.614;2023-10-08T20:45:12;7.80;;;4.40;;
64871;SDS011;51351;51.450;6.614;2023-10-08T20:47:39;7.40;;;3.78;;
64871;SDS011;51351;51.450;6.614;2023-10-08T20:50:05;8.23;;;4.82;;
64871;SDS011;51351;51.450;6.614;2023-10-08T20:52:46;9.10;;;4.15;;
64871;SDS011;51351;51.450;6.614;2023-10-08T20:55:13;8.13;;;4.22;;
64871;SDS011;51351;51.450;6.614;2023-10-08T20:57:42;7.60;;;4.10;;
64871;SDS011;51351;51.450;6.614;2023-10-08T21:00:12;10.63;;;4.72;;
64871;SDS011;51351;51.450;6.614;2023-10-08T21:02:45;9.23;;;5.07;;
64871;SDS011;51351;51.450;6.614;2023-10-08T21:05:12;9.82;;;4.55;;
64871;SDS011;51351;51.450;6.614;2023-10-08T21:07:44;7.30;;;5.50;;
64871;SDS011;51351;51.450;6.614;2023-10-08T21:10:15;16.90;;;5.28;;
64871;SDS011;51351;51.450;6.614;2023-10-08T21:12:43;8.63;;;5.60;;
64871;SDS011;51351;51.450;6.614;2023-10-08T21:15:09;9.95;;;5.13;;
64871;SDS011;51351;51.450;6.614;2023-10-08T21:17:39;7.50;;;5.28;;
64871;SDS011;51351;51.450;6.614;2023-10-08T21:20:10;9.02;;;5.07;;
64871;SDS011;51351;51.450;6.614;2023-10-08T21:22:39;8.57;;;5.97;;
64871;SDS011;51351;51.450;6.614;2023-10-08T21:25:06;8.05;;;5.25;;
64871;SDS011;51351;51.450;6.614;2023-10-08T21:27:42;8.38;;;4.93;;
64871;SDS011;51351;51.450;6.614;2023-10-08T21:30:10;8.82;;;5.07;;
64871;SDS011;51351;51.450;6.614;2023-10-08T21:32:41;10.57;;;4.65;;
